createdAt,value
2019-04-05T00:01:49.405Z,24.12
2019-04-05T00:03:53.603Z,22.55
2019-04-05T00:05:58.323Z,23.90
2019-04-05T00:08:03.027Z,23.73
2019-04-05T00:10:07.884Z,23.83
2019-04-05T00:12:11.818Z,26.12
2019-04-05T00:14:15.993Z,25.08
2019-04-05T00:16:20.135Z,25.17
2019-04-05T00:18:24.333Z,25.05
2019-04-05T00:20:28.533Z,25.57
2019-04-05T00:22:32.640Z,23.83
2019-04-05T00:24:36.756Z,25.82
2019-04-05T00:26:40.871Z,25.62
2019-04-05T00:28:45.071Z,23.77
2019-04-05T00:30:49.292Z,25.52
2019-04-05T00:32:53.497Z,24.87
2019-04-05T00:34:57.612Z,24.92
2019-04-05T00:37:02.193Z,26.25
2019-04-05T00:39:08.547Z,25.95
2019-04-05T00:41:12.379Z,23.95
2019-04-05T00:43:16.507Z,24.50
2019-04-05T00:45:28.060Z,23.02
2019-04-05T00:47:26.474Z,25.80
2019-04-05T00:49:31.104Z,24.75
2019-04-05T00:51:35.715Z,26.15
2019-04-05T00:53:41.493Z,27.70
2019-04-05T00:55:45.671Z,25.25
2019-04-05T00:57:50.875Z,23.67
2019-04-05T00:59:55.023Z,24.57
2019-04-05T01:01:59.853Z,23.47
2019-04-05T01:04:04.066Z,22.55
2019-04-05T01:06:08.270Z,24.77
2019-04-05T01:08:13.289Z,21.95
2019-04-05T01:10:17.436Z,22.10
2019-04-05T01:12:24.461Z,23.47
2019-04-05T01:14:29.320Z,22.32
2019-04-05T01:16:34.042Z,22.50
2019-04-05T01:18:38.158Z,23.62
2019-04-05T01:20:45.044Z,24.55
2019-04-05T01:22:49.443Z,23.95
2019-04-05T01:24:56.623Z,24.70
2019-04-05T01:27:01.209Z,24.00
2019-04-05T01:29:06.874Z,26.95
2019-04-05T01:31:12.638Z,27.35
2019-04-05T01:33:16.872Z,26.90
2019-04-05T01:35:21.074Z,26.65
2019-04-05T01:37:26.123Z,25.40
2019-04-05T01:39:30.329Z,25.60
2019-04-05T01:41:34.908Z,25.80
2019-04-05T01:43:39.058Z,25.92
2019-04-05T01:45:52.943Z,25.23
2019-04-05T01:47:49.027Z,26.68
2019-04-05T01:49:53.178Z,25.20
2019-04-05T01:51:58.158Z,25.27
2019-04-05T01:54:02.358Z,24.23
2019-04-05T01:56:06.691Z,25.90
2019-04-05T01:58:10.892Z,27.90
2019-04-05T02:00:21.090Z,27.60
2019-04-05T02:02:27.934Z,26.52
2019-04-05T02:04:32.130Z,28.42
2019-04-05T02:06:39.531Z,29.12
2019-04-05T02:08:45.236Z,27.52
2019-04-05T02:10:49.546Z,28.32
2019-04-05T02:12:53.522Z,28.90
2019-04-05T02:14:58.017Z,26.27
2019-04-05T02:17:02.327Z,26.25
2019-04-05T02:19:06.248Z,27.90
2019-04-05T02:21:10.538Z,28.12
2019-04-05T02:23:14.762Z,26.62
2019-04-05T02:25:19.069Z,26.90
2019-04-05T02:27:23.280Z,27.75
2019-04-05T02:29:27.499Z,27.75
2019-04-05T02:31:33.624Z,25.68
2019-04-05T02:33:41.342Z,26.00
2019-04-05T02:35:45.589Z,26.55
2019-04-05T02:37:49.762Z,24.85
2019-04-05T02:39:53.654Z,26.20
2019-04-05T02:41:58.304Z,23.77
2019-04-05T02:44:02.390Z,24.12
2019-04-05T02:46:23.165Z,25.70
2019-04-05T02:48:21.087Z,27.93
2019-04-05T02:50:28.278Z,28.02
2019-04-05T02:52:32.604Z,28.40
2019-04-05T02:54:36.890Z,26.48
2019-04-05T02:56:41.114Z,26.25
2019-04-05T02:58:45.823Z,26.17
2019-04-05T03:00:50.413Z,24.20
2019-04-05T03:02:55.818Z,24.52
2019-04-05T03:05:00.001Z,26.40
2019-04-05T03:07:04.526Z,23.67
2019-04-05T03:09:09.586Z,23.85
2019-04-05T03:11:14.935Z,24.07
2019-04-05T03:13:19.212Z,23.50
2019-04-05T03:15:23.417Z,26.48
2019-04-05T03:17:27.944Z,25.85
2019-04-05T03:19:36.871Z,26.77
2019-04-05T03:21:44.057Z,25.75
2019-04-05T03:23:49.899Z,26.73
2019-04-05T03:25:55.326Z,26.17
2019-04-05T03:28:00.361Z,27.70
2019-04-05T03:30:06.897Z,32.40
2019-04-05T03:32:14.432Z,26.65
2019-04-05T03:34:18.846Z,28.12
2019-04-05T03:36:23.883Z,27.20
2019-04-05T03:38:28.087Z,26.57
2019-04-05T03:40:33.907Z,26.95
2019-04-05T03:42:38.779Z,29.87
2019-04-05T03:44:43.152Z,27.82
2019-04-05T03:46:56.297Z,28.80
2019-04-05T03:48:54.378Z,26.50
2019-04-05T03:50:58.716Z,28.20
2019-04-05T03:53:02.615Z,27.07
2019-04-05T03:55:06.776Z,33.60
2019-04-05T03:57:12.667Z,28.62
2019-04-05T03:59:17.282Z,30.35
2019-04-05T04:01:21.906Z,31.23
2019-04-05T04:03:26.816Z,29.02
2019-04-05T04:05:31.142Z,27.30
2019-04-05T04:07:35.465Z,26.40
2019-04-05T04:09:39.363Z,26.52
2019-04-05T04:11:43.381Z,24.65
2019-04-05T04:13:47.588Z,26.93
2019-04-05T04:15:52.525Z,25.57
2019-04-05T04:17:57.606Z,26.48
2019-04-05T04:20:01.760Z,24.27
2019-04-05T04:22:14.416Z,25.70
2019-04-05T04:24:20.259Z,23.60
2019-04-05T04:26:24.607Z,21.73
2019-04-05T04:28:31.116Z,23.15
2019-04-05T04:30:37.476Z,27.20
2019-04-05T04:32:41.795Z,28.10
2019-04-05T04:34:45.892Z,27.20
2019-04-05T04:36:50.522Z,26.63
2019-04-05T04:38:55.853Z,28.07
2019-04-05T04:41:00.952Z,28.62
2019-04-05T04:43:05.228Z,24.40
2019-04-05T04:45:12.464Z,24.72
2019-04-05T04:47:26.558Z,26.50
2019-04-05T04:49:24.608Z,26.10
2019-04-05T04:51:29.518Z,26.12
2019-04-05T04:53:34.140Z,25.55
2019-04-05T04:55:38.437Z,25.92
2019-04-05T04:57:46.254Z,24.65
2019-04-05T04:59:51.487Z,29.33
2019-04-05T05:01:57.060Z,31.37
2019-04-05T05:04:02.829Z,28.65
2019-04-05T05:06:07.412Z,24.63
2019-04-05T05:08:12.138Z,24.50
2019-04-05T05:10:16.550Z,24.98
2019-04-05T05:12:20.872Z,26.82
2019-04-05T05:14:24.968Z,27.73
2019-04-05T05:16:29.355Z,25.95
2019-04-05T05:18:33.717Z,24.45
2019-04-05T05:20:37.812Z,23.80
2019-04-05T05:22:42.248Z,25.15
2019-04-05T05:24:46.764Z,27.82
2019-04-05T05:26:51.278Z,28.17
2019-04-05T05:28:55.747Z,28.87
2019-04-05T05:31:01.062Z,27.35
2019-04-05T05:33:05.679Z,26.90
2019-04-05T05:35:09.896Z,27.52
2019-04-05T05:37:13.913Z,27.22
2019-04-05T05:39:18.196Z,27.25
2019-04-05T05:41:22.254Z,28.15
2019-04-05T05:43:26.196Z,31.48
2019-04-05T05:45:30.457Z,29.98
2019-04-05T05:47:34.732Z,26.85
2019-04-05T05:49:38.853Z,28.42
2019-04-05T05:51:43.149Z,26.23
2019-04-05T05:53:47.269Z,25.92
2019-04-05T05:55:51.496Z,29.30
2019-04-05T05:57:58.659Z,26.10
2019-04-05T06:00:01.856Z,28.55
2019-04-05T06:02:07.710Z,26.90
2019-04-05T06:04:13.790Z,26.37
2019-04-05T06:06:17.666Z,24.67
2019-04-05T06:08:21.771Z,26.80
2019-04-05T06:10:25.864Z,28.55
2019-04-05T06:12:30.094Z,25.20
2019-04-05T06:14:37.486Z,28.47
2019-04-05T06:16:46.507Z,25.68
2019-04-05T06:18:48.681Z,27.55
2019-04-05T06:20:53.012Z,27.82
2019-04-05T06:22:56.850Z,30.82
2019-04-05T06:25:01.157Z,30.05
2019-04-05T06:27:05.531Z,27.73
2019-04-05T06:29:10.685Z,29.15
2019-04-05T06:31:14.866Z,24.75
2019-04-05T06:33:30.853Z,24.70
2019-04-05T06:35:26.038Z,25.95
2019-04-05T06:37:30.174Z,24.40
2019-04-05T06:39:34.384Z,26.33
2019-04-05T06:41:38.515Z,24.65
2019-04-05T13:39:50.839Z,21.05
2019-04-05T13:41:54.683Z,20.75
2019-04-05T13:44:01.333Z,22.13
2019-04-05T13:46:04.366Z,23.15
2019-04-05T13:48:09.029Z,22.42
2019-04-05T13:50:14.537Z,20.40
2019-04-05T13:52:18.421Z,21.90
2019-04-05T13:54:22.248Z,22.02
2019-04-05T13:56:26.448Z,24.80
2019-04-05T13:58:30.662Z,25.32
2019-04-05T14:00:34.879Z,25.20
2019-04-05T14:02:39.094Z,25.30
2019-04-05T14:04:43.305Z,26.68
2019-04-05T14:06:47.406Z,26.05
2019-04-05T14:08:51.632Z,24.65
2019-04-05T14:10:55.848Z,25.72
2019-04-05T14:12:59.952Z,25.65
2019-04-05T14:15:04.372Z,26.45
2019-04-05T14:17:08.588Z,26.30
2019-04-05T14:19:12.874Z,25.62
2019-04-05T14:21:16.713Z,27.15
2019-04-05T14:23:23.332Z,27.27
2019-04-05T14:25:29.947Z,28.10
2019-04-05T14:27:34.798Z,24.92
2019-04-05T14:29:38.158Z,26.42
2019-04-05T14:31:41.973Z,26.05
2019-04-05T14:33:46.180Z,27.45
2019-04-05T14:35:50.403Z,26.25
2019-04-05T14:37:55.256Z,26.77
2019-04-05T14:39:59.422Z,24.87
2019-04-05T14:42:09.679Z,24.63
2019-04-05T14:44:10.048Z,25.82
2019-04-05T14:46:14.418Z,23.98
2019-04-05T14:48:18.266Z,24.57
2019-04-05T14:50:22.092Z,26.23
2019-04-05T14:52:25.950Z,24.43
2019-04-05T14:54:30.813Z,24.50
2019-04-05T14:56:35.078Z,24.35
2019-04-05T14:58:38.900Z,24.25
2019-04-05T15:00:44.449Z,25.75
2019-04-05T15:02:48.633Z,24.85
2019-04-05T15:04:52.740Z,25.05
2019-04-05T15:06:56.958Z,23.55
2019-04-05T15:09:02.186Z,25.27
2019-04-05T15:11:06.404Z,24.82
2019-04-05T15:13:10.636Z,25.52
2019-04-05T15:15:14.687Z,24.57
2019-04-05T15:17:18.834Z,24.98
2019-04-05T15:19:22.682Z,27.02
2019-04-05T15:21:26.850Z,23.27
2019-04-05T15:23:31.070Z,25.68
2019-04-05T15:25:34.916Z,24.95
2019-04-05T15:27:39.076Z,23.57
2019-04-05T15:29:43.312Z,25.37
2019-04-05T15:31:47.611Z,27.10
2019-04-05T15:33:51.814Z,27.60
2019-04-05T15:35:58.331Z,24.90
2019-04-05T15:38:02.314Z,25.52
2019-04-05T15:40:08.108Z,26.55
2019-04-05T15:42:12.251Z,28.57
2019-04-05T15:44:16.571Z,26.90
2019-04-05T15:46:20.884Z,24.43
2019-04-05T15:48:25.112Z,26.82
2019-04-05T15:50:28.957Z,26.97
2019-04-05T15:52:32.810Z,28.02
2019-04-05T15:54:36.912Z,30.23
2019-04-05T15:56:41.182Z,26.87
2019-04-05T15:58:45.018Z,25.72
2019-04-05T16:00:49.349Z,26.50
2019-04-05T16:02:53.559Z,29.42
2019-04-05T16:04:57.769Z,27.85
2019-04-05T16:07:01.889Z,29.45
2019-04-05T16:09:09.442Z,28.90
2019-04-05T16:11:13.583Z,28.27
2019-04-05T16:13:17.792Z,27.82
2019-04-05T16:15:21.656Z,28.38
2019-04-05T16:17:25.811Z,28.50
2019-04-05T16:19:29.931Z,28.45
2019-04-05T16:21:33.780Z,24.95
2019-04-05T16:23:40.486Z,25.62
2019-04-05T16:25:44.600Z,26.23
2019-04-05T16:27:48.830Z,25.15
2019-04-05T16:29:52.950Z,24.65
2019-04-05T16:31:57.151Z,25.70
2019-04-05T16:34:00.980Z,26.97
2019-04-05T16:36:05.254Z,28.38
2019-04-05T16:38:09.475Z,24.55
2019-04-05T16:40:14.099Z,26.97
2019-04-05T16:42:18.302Z,26.10
2019-04-05T16:44:22.417Z,26.30
2019-04-05T16:46:26.531Z,25.82
2019-04-05T16:48:30.735Z,24.40
2019-04-05T16:50:34.570Z,26.40
2019-04-05T16:52:44.593Z,26.85
2019-04-05T16:54:44.807Z,26.93
2019-04-05T16:56:48.641Z,27.87
2019-04-05T16:58:52.827Z,26.52
2019-04-05T17:00:57.003Z,25.15
2019-04-05T17:03:00.830Z,26.85
2019-04-05T17:05:06.980Z,27.15
2019-04-05T17:07:11.109Z,26.05
2019-04-05T17:09:15.229Z,26.05
2019-04-05T17:11:19.539Z,26.85
2019-04-05T17:13:23.396Z,27.42
2019-04-05T17:15:27.558Z,24.63
2019-04-05T17:17:31.379Z,25.20
2019-04-05T17:19:35.540Z,25.32
2019-04-05T17:21:39.665Z,26.52
2019-04-05T17:23:43.882Z,26.52
2019-04-05T17:25:48.105Z,27.17
2019-04-05T17:27:52.243Z,25.48
2019-04-05T17:29:56.386Z,26.95
2019-04-05T17:32:00.537Z,25.48
2019-04-05T17:34:04.782Z,26.60
2019-04-05T17:36:08.973Z,28.12
2019-04-05T17:38:13.190Z,28.65
2019-04-05T17:40:18.315Z,26.77
2019-04-05T17:42:22.173Z,36.28
2019-04-05T17:44:26.320Z,31.70
2019-04-05T17:46:30.344Z,30.17
2019-04-05T17:48:34.556Z,30.60
2019-04-05T17:50:38.871Z,26.77
2019-04-05T17:52:43.089Z,26.05
2019-04-05T17:54:50.362Z,26.95
2019-04-05T17:56:54.679Z,27.17
2019-04-05T17:58:59.089Z,28.57
2019-04-05T18:01:03.399Z,26.68
2019-04-05T18:03:07.633Z,27.20
2019-04-05T18:05:11.555Z,28.05
2019-04-05T18:07:15.836Z,25.17
2019-04-05T18:09:20.068Z,24.95
2019-04-05T18:11:24.277Z,27.77
2019-04-05T18:13:28.467Z,27.13
2019-04-05T18:15:32.763Z,27.48
2019-04-05T18:17:36.611Z,28.00
2019-04-05T18:19:44.120Z,27.10
2019-04-05T18:21:48.317Z,28.70
2019-04-05T18:23:52.529Z,28.38
2019-04-05T18:25:56.715Z,33.73
2019-04-05T18:28:00.929Z,29.45
2019-04-05T18:30:07.045Z,31.60
2019-04-05T18:32:11.199Z,28.12
2019-04-05T18:34:15.435Z,26.48
2019-04-05T18:36:19.265Z,27.35
2019-04-05T18:38:23.439Z,28.15
2019-04-05T18:40:39.469Z,28.83
2019-04-05T18:42:33.497Z,26.60
2019-04-05T18:44:37.746Z,21.82
2019-04-05T18:46:41.919Z,22.22
2019-04-05T18:48:45.828Z,26.55
2019-04-05T18:50:50.058Z,26.00
2019-04-05T18:52:53.903Z,24.43
2019-04-05T18:54:58.070Z,22.30
2019-04-05T18:57:02.266Z,28.45
2019-04-05T18:59:06.089Z,23.90
2019-04-05T19:01:10.278Z,23.98
2019-04-05T19:03:14.495Z,20.10
2019-04-05T19:05:18.703Z,21.30
2019-04-05T19:07:22.955Z,20.82
2019-04-05T19:09:27.252Z,19.30
2019-04-05T19:11:31.473Z,20.37
2019-04-05T19:13:35.480Z,20.70
2019-04-05T19:15:39.303Z,22.10
2019-04-05T19:17:43.475Z,19.00
2019-04-05T19:19:47.670Z,19.20
2019-04-05T19:21:51.893Z,19.65
2019-04-05T19:23:56.097Z,19.90
2019-04-05T19:25:59.955Z,20.02
2019-04-05T19:28:03.807Z,16.77
2019-04-05T19:49:01.003Z,19.85
2019-04-05T19:51:04.823Z,20.80
2019-04-05T19:53:09.012Z,21.68
2019-04-05T19:55:13.055Z,22.98
2019-04-05T19:57:17.249Z,24.55
2019-04-05T19:59:21.443Z,23.20
2019-04-05T20:01:25.347Z,21.27
2019-04-05T20:03:29.555Z,19.70
2019-04-05T20:05:33.401Z,20.43
2019-04-05T20:07:37.583Z,23.18
2019-04-05T20:09:41.402Z,24.30
2019-04-05T20:11:45.580Z,23.27
2019-04-05T20:13:49.717Z,25.08
2019-04-05T20:15:53.918Z,22.32
2019-04-05T20:17:58.133Z,19.00
2019-04-05T20:20:01.965Z,18.60
2019-04-05T20:22:06.145Z,18.75
2019-04-05T20:24:14.410Z,19.65
2019-04-05T20:26:15.925Z,18.23
2019-04-05T20:28:20.118Z,20.35
2019-04-05T20:30:24.325Z,20.92
2019-04-05T20:32:28.545Z,20.97
2019-04-05T20:34:32.758Z,20.43
2019-04-05T20:36:36.601Z,20.82
2019-04-05T20:38:40.447Z,21.52
2019-04-05T20:40:44.698Z,21.40
2019-04-05T20:42:48.874Z,22.00
2019-04-05T20:44:53.108Z,21.37
2019-04-05T20:46:57.310Z,20.20
2019-04-05T20:49:01.155Z,22.10
2019-04-05T20:51:05.320Z,22.52
2019-04-05T20:53:09.428Z,22.65
2019-04-05T20:55:13.657Z,21.50
2019-04-05T20:57:17.764Z,22.07
2019-04-05T20:59:21.964Z,22.87
2019-04-05T21:01:26.180Z,22.67
2019-04-05T21:03:30.386Z,21.27
2019-04-05T21:05:34.236Z,22.77
2019-04-05T21:07:38.403Z,22.30
2019-04-05T21:09:42.563Z,22.85
2019-04-05T21:11:46.734Z,23.90
2019-04-05T21:13:50.850Z,22.80
2019-04-05T21:15:55.045Z,28.02
2019-04-05T21:17:59.152Z,32.40
2019-04-05T21:20:03.388Z,32.63
2019-04-05T21:22:07.233Z,32.10
2019-04-05T21:24:11.057Z,31.20
2019-04-05T21:26:15.305Z,30.20
2019-04-05T21:28:19.141Z,29.75
2019-04-05T21:30:22.990Z,29.25
2019-04-05T21:32:27.124Z,29.40
2019-04-05T21:34:31.324Z,28.62
2019-04-05T21:36:35.544Z,30.92
2019-04-05T21:38:39.788Z,32.90
2019-04-05T21:40:43.972Z,29.98
2019-04-05T21:42:48.178Z,29.77
2019-04-05T21:44:52.288Z,28.75
2019-04-05T21:46:56.127Z,26.60
2019-04-05T21:49:00.305Z,29.07
2019-04-05T21:51:04.513Z,28.17
2019-04-05T21:53:08.626Z,28.47
2019-04-05T21:55:12.545Z,30.40
2019-04-05T21:57:16.646Z,28.62
2019-04-05T21:59:20.758Z,30.25
2019-04-05T22:01:26.411Z,27.62
2019-04-05T22:03:30.712Z,27.93
2019-04-05T22:05:34.564Z,27.87
2019-04-05T22:07:38.390Z,27.05
2019-04-05T22:09:42.747Z,30.50
2019-04-05T22:11:46.575Z,30.12
2019-04-05T22:13:50.410Z,29.80
2019-04-05T22:15:54.255Z,28.75
2019-04-05T22:17:58.387Z,28.70
2019-04-05T22:20:02.561Z,28.92
2019-04-05T22:22:06.399Z,26.75
2019-04-05T22:24:10.584Z,26.87
2019-04-05T22:26:14.694Z,26.45
2019-04-05T22:28:18.902Z,24.47
2019-04-05T22:30:23.016Z,26.42
2019-04-05T22:32:27.231Z,27.25
2019-04-05T22:34:31.348Z,26.85
2019-04-05T22:36:35.562Z,26.33
2019-04-05T22:38:39.770Z,27.05
2019-04-05T22:40:43.895Z,25.88
2019-04-05T22:42:47.787Z,26.80
2019-04-05T22:44:51.996Z,25.97
2019-04-05T22:46:55.834Z,24.87
2019-04-05T22:49:00.015Z,27.45
2019-04-05T22:51:05.037Z,26.30
2019-04-05T22:53:09.173Z,27.35
2019-04-05T22:55:13.366Z,28.67
2019-04-05T22:57:17.590Z,26.75
2019-04-05T22:59:21.786Z,25.32
2019-04-05T23:01:26.003Z,27.25
2019-04-05T23:03:30.212Z,27.48
2019-04-05T23:05:34.643Z,27.07
2019-04-05T23:07:38.473Z,29.67
2019-04-05T23:09:42.667Z,24.12
2019-04-05T23:11:46.760Z,30.05
2019-04-05T23:13:50.973Z,28.23
2019-04-05T23:15:54.873Z,28.75
2019-04-05T23:17:58.978Z,28.60
2019-04-05T23:20:03.200Z,29.20
2019-04-05T23:22:07.357Z,31.25
2019-04-05T23:24:11.420Z,31.05
2019-04-05T23:26:15.639Z,32.45
2019-04-05T23:28:19.844Z,31.33
2019-04-05T23:30:25.164Z,30.75
2019-04-05T23:32:29.292Z,29.67
2019-04-05T23:34:33.411Z,30.32
2019-04-05T23:36:37.234Z,29.70
2019-04-05T23:38:41.430Z,32.33
2019-04-05T23:40:45.522Z,31.48
2019-04-05T23:42:49.360Z,33.42
2019-04-05T23:44:53.552Z,33.40
2019-04-05T23:46:57.646Z,30.68
2019-04-05T23:49:01.468Z,30.55
2019-04-05T23:51:05.317Z,29.48
2019-04-05T23:53:09.471Z,30.70
2019-04-05T23:55:13.602Z,32.13
2019-04-05T23:57:18.306Z,32.10
2019-04-05T23:59:22.140Z,32.55
